Time;durP1;ratioP1;P1;durP2;ratioP2;P2;SDS_P1;SDS_P2;PMS_P1;PMS_P2;Temp;Humidity;BMP_temperature;BMP_pressure;BME280_temperature;BME280_humidity;BME280_pressure;Samples;Min_cycle;Max_cycle;Signal;HPM_P1;HPM_P2
2022/08/09 00:00:17;;;;;;;5.65;2.30;;;;;;;;;;2097988;28;20094;-88
2022/08/09 00:01:18;;;;;;;3.72;2.28;;;;;;;;;;2089947;28;20025;-89
2022/08/09 00:02:18;;;;;;;2.83;1.88;;;;;;;;;;2081611;28;20071;-89
2022/08/09 00:03:18;;;;;;;3.53;2.10;;;;;;;;;;2090009;28;20029;-89
2022/08/09 00:04:20;;;;;;;3.80;2.28;;;;;;;;;;2089700;28;20078;-88
2022/08/09 00:05:21;;;;;;;3.70;2.08;;;;;;;;;;2081954;28;20115;-88
2022/08/09 00:06:21;;;;;;;3.72;2.40;;;;;;;;;;2090003;28;20344;-89
2022/08/09 00:07:22;;;;;;;3.35;1.77;;;;;;;;;;2090240;28;20017;-89
2022/08/09 00:08:22;;;;;;;5.63;2.15;;;;;;;;;;2081755;28;20139;-89
2022/08/09 00:09:22;;;;;;;3.05;2.10;;;;;;;;;;2090317;28;20067;-89
2022/08/09 00:10:23;;;;;;;3.55;1.98;;;;;;;;;;2098852;28;20029;-89
2022/08/09 00:11:24;;;;;;;4.70;2.28;;;;;;;;;;2092234;28;20119;-89
2022/08/09 00:12:28;;;;;;;6.32;2.42;;;;;;;;;;1862452;28;10309687;-88
2022/08/09 00:13:29;;;;;;;5.18;2.53;;;;;;;;;;2091972;28;20369;-88
2022/08/09 00:14:29;;;;;;;3.03;1.85;;;;;;;;;;2091565;28;20028;-89
2022/08/09 00:15:29;;;;;;;4.68;2.50;;;;;;;;;;1723257;28;10320102;-89
2022/08/09 00:16:30;;;;;;;4.22;2.35;;;;;;;;;;2089938;28;20089;-88
2022/08/09 00:17:30;;;;;;;3.30;2.33;;;;;;;;;;2098118;28;20017;-89
2022/08/09 00:18:32;;;;;;;2.83;2.28;;;;;;;;;;2089755;28;20102;-88
2022/08/09 00:19:32;;;;;;;4.03;2.15;;;;;;;;;;2081407;28;20056;-89
2022/08/09 00:20:33;;;;;;;2.47;1.90;;;;;;;;;;2090094;28;20123;-89
2022/08/09 00:21:34;;;;;;;3.63;2.10;;;;;;;;;;2090030;28;20047;-90
2022/08/09 00:22:34;;;;;;;3.05;2.00;;;;;;;;;;2089868;28;20100;-89
2022/08/09 00:23:36;;;;;;;4.63;2.08;;;;;;;;;;2089782;28;20027;-90
2022/08/09 00:24:36;;;;;;;2.55;2.15;;;;;;;;;;1740493;28;10105366;-90
2022/08/09 00:25:37;;;;;;;3.42;2.60;;;;;;;;;;2085038;28;20013;-89
2022/08/09 00:26:37;;;;;;;3.65;1.98;;;;;;;;;;2093360;28;20013;-89
2022/08/09 00:27:38;;;;;;;3.20;2.03;;;;;;;;;;2091270;28;20047;-89
2022/08/09 00:28:38;;;;;;;3.90;2.33;;;;;;;;;;2089825;28;20533;-89
2022/08/09 00:29:39;;;;;;;2.50;2.22;;;;;;;;;;2089939;28;20519;-88
2022/08/09 00:30:39;;;;;;;2.40;2.00;;;;;;;;;;2089676;28;20032;-88
2022/08/09 00:31:40;;;;;;;2.35;2.00;;;;;;;;;;2089484;28;20071;-89
2022/08/09 00:32:40;;;;;;;3.58;2.08;;;;;;;;;;2081439;28;20033;-89
2022/08/09 00:33:42;;;;;;;3.28;1.75;;;;;;;;;;2089762;28;20035;-88
2022/08/09 00:34:42;;;;;;;4.22;2.78;;;;;;;;;;2098014;28;20047;-90
2022/08/09 00:35:43;;;;;;;3.88;2.25;;;;;;;;;;2089638;28;20040;-90
2022/08/09 00:36:43;;;;;;;4.25;2.20;;;;;;;;;;2089430;28;20128;-90
2022/08/09 00:37:44;;;;;;;2.83;1.98;;;;;;;;;;2081112;28;20072;-89
2022/08/09 00:38:44;;;;;;;3.97;1.92;;;;;;;;;;2089560;28;20535;-89
2022/08/09 00:39:45;;;;;;;6.10;2.30;;;;;;;;;;2081202;28;20029;-90
2022/08/09 00:40:46;;;;;;;3.20;2.10;;;;;;;;;;2089758;28;20017;-89
2022/08/09 00:41:48;;;;;;;3.95;2.25;;;;;;;;;;2098591;28;20533;-89
2022/08/09 00:42:49;;;;;;;4.75;2.40;;;;;;;;;;2097922;28;20523;-89
2022/08/09 00:43:50;;;;;;;2.42;2.13;;;;;;;;;;2098637;28;20107;-90
2022/08/09 00:44:50;;;;;;;3.20;2.17;;;;;;;;;;2089637;28;20074;-90
2022/08/09 00:45:50;;;;;;;3.35;2.20;;;;;;;;;;2081441;28;20507;-90
2022/08/09 00:46:51;;;;;;;4.47;2.38;;;;;;;;;;2089613;28;20706;-90
2022/08/09 00:47:51;;;;;;;2.42;2.03;;;;;;;;;;2096226;28;20049;-90
2022/08/09 00:48:52;;;;;;;4.35;2.53;;;;;;;;;;2089121;28;20029;-90
2022/08/09 00:49:52;;;;;;;3.85;2.15;;;;;;;;;;2081191;28;20036;-89
2022/08/09 00:50:53;;;;;;;6.45;2.30;;;;;;;;;;2089815;28;20106;-89
2022/08/09 00:51:55;;;;;;;2.70;2.03;;;;;;;;;;2089372;28;20021;-90
2022/08/09 00:52:56;;;;;;;2.38;2.17;;;;;;;;;;2081719;28;20100;-90
2022/08/09 00:53:56;;;;;;;2.90;2.03;;;;;;;;;;2081677;28;20029;-90
2022/08/09 00:55:01;;;;;;;4.88;2.10;;;;;;;;;;2081639;28;20025;-89
2022/08/09 00:56:03;;;;;;;2.72;1.90;;;;;;;;;;2089899;28;20099;-90
2022/08/09 00:57:05;;;;;;;2.67;2.05;;;;;;;;;;2103096;28;20047;-91
2022/08/09 00:58:06;;;;;;;3.05;2.25;;;;;;;;;;1747974;28;10234255;-90
2022/08/09 00:59:06;;;;;;;3.53;2.00;;;;;;;;;;2100311;28;20136;-90
2022/08/09 01:00:08;;;;;;;2.70;2.22;;;;;;;;;;2086654;28;20017;-90
2022/08/09 01:01:17;;;;;;;3.03;2.13;;;;;;;;;;2089674;28;20052;-91
2022/08/09 01:02:21;;;;;;;4.15;2.60;;;;;;;;;;2089278;28;20028;-91
2022/08/09 01:03:39;;;;;;;3.50;2.30;;;;;;;;;;2081427;28;20112;-91
2022/08/09 01:04:54;;;;;;;3.40;2.40;;;;;;;;;;2091854;28;20049;-91
2022/08/09 01:06:18;;;;;;;4.20;2.33;;;;;;;;;;2097696;28;20021;-92
2022/08/09 01:07:26;;;;;;;2.90;2.10;;;;;;;;;;2089650;28;20529;-92
2022/08/09 01:08:33;;;;;;;2.65;2.13;;;;;;;;;;2082172;28;20056;-91
2022/08/09 01:09:52;;;;;;;2.47;2.28;;;;;;;;;;2090130;28;20063;-90
2022/08/09 01:11:05;;;;;;;3.88;2.55;;;;;;;;;;2089391;28;20049;-90
2022/08/09 01:12:24;;;;;;;3.83;2.35;;;;;;;;;;2091077;28;20750;-91
2022/08/09 01:13:36;;;;;;;3.55;2.50;;;;;;;;;;2089676;28;20523;-91
2022/08/09 01:14:45;;;;;;;2.35;2.15;;;;;;;;;;2090835;28;20052;-88
2022/08/09 01:15:51;;;;;;;4.32;3.13;;;;;;;;;;2089286;28;20167;-88
2022/08/09 01:16:57;;;;;;;5.55;2.22;;;;;;;;;;2081610;28;20025;-88
2022/08/09 01:18:01;;;;;;;4.18;2.53;;;;;;;;;;2089108;28;20112;-88
2022/08/09 01:19:22;;;;;;;7.22;2.63;;;;;;;;;;2089834;28;20025;-88
2022/08/09 01:20:39;;;;;;;3.63;2.35;;;;;;;;;;2097727;28;20028;-88
2022/08/09 01:21:44;;;;;;;5.43;2.10;;;;;;;;;;2089457;28;20028;-89
2022/08/09 01:22:45;;;;;;;3.17;2.30;;;;;;;;;;2081488;28;20112;-88
2022/08/09 01:24:14;;;;;;;3.17;2.25;;;;;;;;;;2089555;28;20103;-89
2022/08/09 01:25:20;;;;;;;2.65;2.25;;;;;;;;;;2089456;28;20029;-88
2022/08/09 01:26:40;;;;;;;5.93;2.47;;;;;;;;;;2082217;28;20100;-88
2022/08/09 01:27:40;;;;;;;2.67;1.70;;;;;;;;;;2085593;28;20025;-89
2022/08/09 01:28:44;;;;;;;3.83;2.20;;;;;;;;;;2091158;28;20091;-88
2022/08/09 01:29:55;;;;;;;4.55;2.22;;;;;;;;;;2098654;28;20113;-88
2022/08/09 01:30:59;;;;;;;7.45;3.22;;;;;;;;;;2089194;28;20443;-88
2022/08/09 01:32:03;;;;;;;4.90;2.40;;;;;;;;;;2089513;28;20172;-89
2022/08/09 01:33:07;;;;;;;3.90;2.15;;;;;;;;;;2097518;28;20433;-88
2022/08/09 01:34:11;;;;;;;3.50;2.63;;;;;;;;;;2089002;28;20036;-88
2022/08/09 01:35:21;;;;;;;2.10;1.65;;;;;;;;;;2081166;28;20017;-89
2022/08/09 01:36:26;;;;;;;4.38;2.15;;;;;;;;;;2082322;28;20049;-88
2022/08/09 01:37:27;;;;;;;4.40;2.25;;;;;;;;;;2089957;28;20051;-89
2022/08/09 01:38:33;;;;;;;3.25;2.20;;;;;;;;;;2098089;28;20017;-89
2022/08/09 01:39:36;;;;;;;5.47;2.20;;;;;;;;;;2089079;28;20132;-89
2022/08/09 01:40:41;;;;;;;2.92;2.55;;;;;;;;;;2089599;28;20035;-89
2022/08/09 01:41:43;;;;;;;3.53;2.22;;;;;;;;;;2097403;28;20032;-89
2022/08/09 01:42:44;;;;;;;3.67;2.40;;;;;;;;;;2089046;28;20058;-89
2022/08/09 01:43:49;;;;;;;4.30;2.33;;;;;;;;;;2080076;28;20026;-89
2022/08/09 01:44:51;;;;;;;3.22;2.03;;;;;;;;;;2080577;28;20120;-88
2022/08/09 01:45:53;;;;;;;5.10;2.72;;;;;;;;;;2088716;28;20052;-88
2022/08/09 01:46:53;;;;;;;4.80;1.98;;;;;;;;;;2080054;28;20033;-88
2022/08/09 01:47:57;;;;;;;5.10;2.28;;;;;;;;;;2088264;28;20080;-88
2022/08/09 01:49:00;;;;;;;3.42;2.45;;;;;;;;;;2097887;28;20036;-90
2022/08/09 01:50:03;;;;;;;4.47;2.30;;;;;;;;;;2089061;28;20036;-90
2022/08/09 01:51:04;;;;;;;3.47;2.05;;;;;;;;;;2089343;28;20036;-90
2022/08/09 01:52:11;;;;;;;2.92;2.08;;;;;;;;;;2097391;28;20035;-89
2022/08/09 01:53:12;;;;;;;4.43;1.90;;;;;;;;;;2097552;28;20028;-89
2022/08/09 01:54:14;;;;;;;6.47;2.08;;;;;;;;;;2097483;28;20036;-90
2022/08/09 01:55:16;;;;;;;7.32;2.63;;;;;;;;;;1381005;28;10253029;-89
2022/08/09 01:56:17;;;;;;;2.28;2.00;;;;;;;;;;2088944;28;20033;-89
2022/08/09 01:57:28;;;;;;;6.18;2.45;;;;;;;;;;1720472;28;10374024;-89
2022/08/09 01:58:31;;;;;;;3.33;2.47;;;;;;;;;;2082388;28;20033;-89
2022/08/09 01:59:33;;;;;;;2.80;2.20;;;;;;;;;;2089296;28;20025;-89
2022/08/09 02:00:34;;;;;;;3.75;2.20;;;;;;;;;;2088941;28;20093;-89
2022/08/09 02:01:36;;;;;;;4.63;2.42;;;;;;;;;;1734151;28;10174422;-89
2022/08/09 02:02:43;;;;;;;3.30;2.20;;;;;;;;;;2088983;28;20048;-89
2022/08/09 02:03:46;;;;;;;3.50;1.88;;;;;;;;;;2089410;28;20037;-92
2022/08/09 02:04:48;;;;;;;5.07;2.05;;;;;;;;;;2098266;28;20032;-92
2022/08/09 02:05:53;;;;;;;3.17;2.10;;;;;;;;;;2088683;28;20094;-92
2022/08/09 02:07:08;;;;;;;2.50;2.20;;;;;;;;;;2081330;28;20487;-91
2022/08/09 02:08:12;;;;;;;3.20;2.20;;;;;;;;;;2082495;28;20053;-92
2022/08/09 02:09:14;;;;;;;5.24;2.42;;;;;;;;;;1733444;28;10212343;-90
2022/08/09 02:10:21;;;;;;;3.85;2.38;;;;;;;;;;2088749;28;20111;-90
2022/08/09 02:11:23;;;;;;;3.90;2.47;;;;;;;;;;2088863;28;20380;-91
2022/08/09 02:12:24;;;;;;;2.53;2.20;;;;;;;;;;2089150;28;20473;-91
2022/08/09 02:13:26;;;;;;;3.88;1.98;;;;;;;;;;2088870;28;20040;-92
2022/08/09 02:14:27;;;;;;;5.47;2.10;;;;;;;;;;2080971;28;20510;-91
2022/08/09 02:15:31;;;;;;;2.83;2.10;;;;;;;;;;2089104;28;20024;-91
2022/08/09 02:16:36;;;;;;;2.33;2.00;;;;;;;;;;2089106;28;20066;-91
2022/08/09 02:17:38;;;;;;;3.30;2.13;;;;;;;;;;2089397;28;20482;-91
2022/08/09 02:18:40;;;;;;;3.25;2.40;;;;;;;;;;2088950;28;20017;-91
2022/08/09 02:19:41;;;;;;;4.03;2.33;;;;;;;;;;2089028;28;20021;-92
2022/08/09 02:20:45;;;;;;;4.20;2.28;;;;;;;;;;2097260;28;20028;-91
2022/08/09 02:21:49;;;;;;;2.50;1.90;;;;;;;;;;2088790;28;20497;-91
2022/08/09 02:22:53;;;;;;;3.25;2.30;;;;;;;;;;1733115;28;10203349;-91
2022/08/09 02:23:56;;;;;;;4.75;2.25;;;;;;;;;;2089546;28;20032;-91
2022/08/09 02:25:00;;;;;;;5.57;2.25;;;;;;;;;;2089014;28;20037;-92
2022/08/09 02:26:02;;;;;;;4.18;3.63;;;;;;;;;;1723823;28;10294948;-91
2022/08/09 02:27:06;;;;;;;3.13;2.05;;;;;;;;;;2080944;28;20040;-91
2022/08/09 02:28:11;;;;;;;3.22;2.20;;;;;;;;;;2081349;28;20035;-91
2022/08/09 02:29:27;;;;;;;4.60;2.35;;;;;;;;;;1728417;28;10153062;-90
2022/08/09 02:30:32;;;;;;;2.60;2.00;;;;;;;;;;2082662;28;20064;-90
2022/08/09 02:31:37;;;;;;;4.68;2.70;;;;;;;;;;2089509;28;20027;-91
2022/08/09 02:32:43;;;;;;;3.33;2.35;;;;;;;;;;2088867;28;20491;-91
2022/08/09 02:33:46;;;;;;;3.70;2.30;;;;;;;;;;2081581;28;20032;-92
2022/08/09 02:34:52;;;;;;;3.63;2.42;;;;;;;;;;2088941;28;20142;-91
2022/08/09 02:35:57;;;;;;;3.28;2.13;;;;;;;;;;2089000;28;20036;-91
2022/08/09 02:36:59;;;;;;;4.90;2.55;;;;;;;;;;2089533;28;20722;-91
2022/08/09 02:38:02;;;;;;;4.30;2.50;;;;;;;;;;2097681;28;20090;-92
2022/08/09 02:39:06;;;;;;;3.63;2.25;;;;;;;;;;2088684;28;20110;-91
2022/08/09 02:40:10;;;;;;;2.72;2.50;;;;;;;;;;2089213;28;20487;-91
2022/08/09 02:41:15;;;;;;;5.25;2.67;;;;;;;;;;2088913;28;20021;-92
2022/08/09 02:42:20;;;;;;;5.07;2.40;;;;;;;;;;2081182;28;20502;-91
2022/08/09 02:43:23;;;;;;;4.85;2.20;;;;;;;;;;2081284;28;20027;-92
2022/08/09 02:44:30;;;;;;;5.25;2.63;;;;;;;;;;2089263;28;20052;-93
2022/08/09 02:45:34;;;;;;;6.22;2.13;;;;;;;;;;2089044;28;20028;-91
2022/08/09 02:46:37;;;;;;;3.53;2.08;;;;;;;;;;2081181;28;20432;-91
2022/08/09 02:47:40;;;;;;;2.97;2.20;;;;;;;;;;2081218;28;20544;-89
2022/08/09 02:48:43;;;;;;;3.25;2.10;;;;;;;;;;2080840;28;20045;-91
2022/08/09 02:49:55;;;;;;;3.92;1.98;;;;;;;;;;2081804;28;20037;-91
2022/08/09 02:50:59;;;;;;;4.00;2.20;;;;;;;;;;2091933;28;20032;-91
2022/08/09 02:52:00;;;;;;;6.90;2.83;;;;;;;;;;2091374;28;20048;-92
2022/08/09 02:53:11;;;;;;;3.55;2.33;;;;;;;;;;2091720;28;20025;-91
2022/08/09 02:54:14;;;;;;;6.32;2.15;;;;;;;;;;2097944;28;20052;-90
2022/08/09 02:55:16;;;;;;;4.15;2.22;;;;;;;;;;2097497;28;20043;-90
2022/08/09 02:56:19;;;;;;;3.03;2.30;;;;;;;;;;1735301;28;10332794;-91
2022/08/09 02:57:20;;;;;;;3.05;2.13;;;;;;;;;;2096755;28;20023;-90
2022/08/09 02:58:24;;;;;;;2.42;2.22;;;;;;;;;;2080617;28;20559;-90
2022/08/09 02:59:26;;;;;;;3.05;2.10;;;;;;;;;;2089480;28;20100;-89
2022/08/09 03:00:28;;;;;;;3.35;1.90;;;;;;;;;;1777933;28;10001934;-90
2022/08/09 03:01:30;;;;;;;4.65;2.45;;;;;;;;;;1726339;28;10206927;-90
2022/08/09 03:02:41;;;;;;;3.13;1.90;;;;;;;;;;1969606;28;10123629;-89
2022/08/09 03:03:42;;;;;;;2.78;2.10;;;;;;;;;;2100008;28;20256;-90
2022/08/09 03:04:44;;;;;;;5.25;2.47;;;;;;;;;;2090630;28;20021;-90
2022/08/09 03:05:46;;;;;;;4.22;2.00;;;;;;;;;;2083239;28;20320;-92
2022/08/09 03:06:47;;;;;;;3.25;1.80;;;;;;;;;;2088619;28;20025;-91
2022/08/09 03:07:49;;;;;;;2.25;1.73;;;;;;;;;;2088338;28;20674;-91
2022/08/09 03:08:51;;;;;;;4.68;2.00;;;;;;;;;;2088711;28;20024;-89
2022/08/09 03:09:52;;;;;;;3.83;2.47;;;;;;;;;;2088209;28;20114;-90
2022/08/09 03:10:54;;;;;;;4.90;2.33;;;;;;;;;;2088288;28;20037;-90
2022/08/09 03:11:57;;;;;;;2.90;1.92;;;;;;;;;;2088565;28;20028;-91
2022/08/09 03:12:59;;;;;;;3.40;2.47;;;;;;;;;;2088602;28;20035;-90
2022/08/09 03:14:00;;;;;;;4.20;2.60;;;;;;;;;;2088548;28;20446;-90
2022/08/09 03:15:02;;;;;;;3.88;2.40;;;;;;;;;;2081365;28;20032;-91
2022/08/09 03:16:03;;;;;;;2.92;2.15;;;;;;;;;;2081813;28;20092;-90
2022/08/09 03:17:04;;;;;;;2.58;2.13;;;;;;;;;;2081750;28;20466;-90
2022/08/09 03:18:05;;;;;;;4.35;3.28;;;;;;;;;;2082278;28;20155;-90
2022/08/09 03:19:06;;;;;;;3.00;2.42;;;;;;;;;;2090612;28;20040;-90
2022/08/09 03:20:08;;;;;;;3.45;2.50;;;;;;;;;;2099772;28;20039;-90
2022/08/09 03:21:10;;;;;;;3.25;2.58;;;;;;;;;;2092145;28;20072;-91
2022/08/09 03:22:10;;;;;;;3.60;2.65;;;;;;;;;;2083972;28;20060;-90
2022/08/09 03:23:12;;;;;;;3.30;2.33;;;;;;;;;;2093288;28;20178;-89
2022/08/09 03:24:13;;;;;;;5.90;2.60;;;;;;;;;;2100673;28;20033;-89
2022/08/09 03:25:13;;;;;;;3.13;2.40;;;;;;;;;;2098443;28;20024;-92
2022/08/09 03:26:16;;;;;;;5.95;2.45;;;;;;;;;;2091087;28;20111;-92
2022/08/09 03:27:17;;;;;;;4.07;2.75;;;;;;;;;;2082428;28;20029;-91
2022/08/09 03:28:18;;;;;;;3.40;2.40;;;;;;;;;;2089994;28;20035;-91
2022/08/09 03:29:20;;;;;;;5.82;2.90;;;;;;;;;;2090483;28;20025;-92
2022/08/09 03:30:20;;;;;;;3.13;2.38;;;;;;;;;;2090383;28;20025;-91
2022/08/09 03:31:22;;;;;;;3.70;2.50;;;;;;;;;;2089919;28;20427;-90
2022/08/09 03:32:24;;;;;;;4.74;2.36;;;;;;;;;;1731936;28;10270795;-90
2022/08/09 03:33:25;;;;;;;3.25;2.38;;;;;;;;;;2098612;28;20035;-91
2022/08/09 03:34:26;;;;;;;3.63;2.80;;;;;;;;;;2089778;28;20441;-91
2022/08/09 03:35:27;;;;;;;3.90;2.50;;;;;;;;;;2089998;28;20075;-91
2022/08/09 03:36:27;;;;;;;3.20;2.42;;;;;;;;;;2090211;28;20059;-93
2022/08/09 03:37:28;;;;;;;4.60;2.72;;;;;;;;;;2081789;28;20025;-91
2022/08/09 03:38:29;;;;;;;4.30;3.00;;;;;;;;;;2089872;28;20512;-89
2022/08/09 03:39:29;;;;;;;8.15;2.90;;;;;;;;;;2098292;28;20028;-91
2022/08/09 03:40:30;;;;;;;5.53;3.35;;;;;;;;;;2097755;28;20091;-90
2022/08/09 03:41:30;;;;;;;3.58;2.72;;;;;;;;;;2089777;28;20024;-89
2022/08/09 03:42:31;;;;;;;3.75;2.60;;;;;;;;;;2089891;28;20061;-89
2022/08/09 03:43:32;;;;;;;4.32;2.67;;;;;;;;;;2098380;28;20106;-89
2022/08/09 03:44:32;;;;;;;3.22;2.80;;;;;;;;;;2106510;28;20036;-88
2022/08/09 03:45:35;;;;;;;5.30;2.28;;;;;;;;;;2097955;28;20691;-89
2022/08/09 03:46:40;;;;;;;5.66;2.90;;;;;;;;;;1924890;28;10000601;-88
2022/08/09 03:47:42;;;;;;;4.45;2.45;;;;;;;;;;2090509;28;20229;-88
2022/08/09 03:48:44;;;;;;;3.42;2.67;;;;;;;;;;2098310;28;20028;-88
2022/08/09 03:49:45;;;;;;;5.50;2.40;;;;;;;;;;2097950;28;20122;-88
2022/08/09 03:50:47;;;;;;;3.63;2.25;;;;;;;;;;2089778;28;20036;-89
2022/08/09 03:51:50;;;;;;;3.20;2.42;;;;;;;;;;2090099;28;20032;-87
2022/08/09 03:52:53;;;;;;;3.63;2.30;;;;;;;;;;2098495;28;20060;-89
2022/08/09 03:53:54;;;;;;;5.32;2.40;;;;;;;;;;2098039;28;20056;-89
2022/08/09 03:54:55;;;;;;;3.92;2.10;;;;;;;;;;2098043;28;20412;-89
2022/08/09 03:55:56;;;;;;;3.38;2.15;;;;;;;;;;2097602;28;20050;-88
2022/08/09 03:57:02;;;;;;;2.88;2.45;;;;;;;;;;2098363;28;20037;-89
2022/08/09 03:58:02;;;;;;;3.50;2.38;;;;;;;;;;2106243;28;20433;-89
2022/08/09 03:59:04;;;;;;;2.40;1.92;;;;;;;;;;2106648;28;20047;-88
2022/08/09 04:00:05;;;;;;;3.17;2.10;;;;;;;;;;2107270;28;20070;-89
2022/08/09 04:01:06;;;;;;;3.65;2.47;;;;;;;;;;2107668;28;20040;-89
2022/08/09 04:02:07;;;;;;;3.13;2.20;;;;;;;;;;2107457;28;20030;-89
2022/08/09 04:03:08;;;;;;;6.22;2.63;;;;;;;;;;2098317;28;20502;-89
2022/08/09 04:04:10;;;;;;;2.50;1.98;;;;;;;;;;2089868;28;20079;-89
2022/08/09 04:05:10;;;;;;;3.05;2.38;;;;;;;;;;2091875;28;20035;-89
2022/08/09 04:06:11;;;;;;;3.53;2.30;;;;;;;;;;2095170;28;20340;-89
2022/08/09 04:07:11;;;;;;;3.35;2.30;;;;;;;;;;2102757;28;20024;-89
2022/08/09 04:08:12;;;;;;;4.13;2.35;;;;;;;;;;2108219;28;20052;-88
2022/08/09 04:09:19;;;;;;;5.10;2.94;;;;;;;;;;1958270;28;10285591;-87
2022/08/09 04:10:21;;;;;;;4.05;2.40;;;;;;;;;;2089657;28;20619;-87
2022/08/09 04:11:21;;;;;;;4.93;2.38;;;;;;;;;;1746746;28;10000985;-88
2022/08/09 04:12:41;;;;;;;3.85;2.38;;;;;;;;;;2088678;28;20021;-87
2022/08/09 04:13:41;;;;;;;2.40;2.20;;;;;;;;;;2099516;28;20091;-89
2022/08/09 04:14:42;;;;;;;7.07;2.20;;;;;;;;;;2096314;28;20028;-88
2022/08/09 04:15:43;;;;;;;5.00;2.60;;;;;;;;;;2091480;28;20612;-88
2022/08/09 04:16:44;;;;;;;3.50;2.25;;;;;;;;;;2096864;28;20054;-88
2022/08/09 04:17:44;;;;;;;4.07;2.25;;;;;;;;;;1738514;28;10244885;-89
2022/08/09 04:18:45;;;;;;;4.88;2.20;;;;;;;;;;2106971;28;20681;-89
2022/08/09 04:19:45;;;;;;;2.97;2.17;;;;;;;;;;2106670;28;20027;-88
2022/08/09 04:20:46;;;;;;;3.05;2.20;;;;;;;;;;1745424;28;10274566;-88
2022/08/09 04:21:48;;;;;;;4.05;1.85;;;;;;;;;;2097726;28;20086;-89
2022/08/09 04:22:48;;;;;;;3.15;1.90;;;;;;;;;;2097531;28;20103;-88
2022/08/09 04:23:49;;;;;;;3.53;1.98;;;;;;;;;;2106679;28;20053;-89
2022/08/09 04:24:49;;;;;;;2.28;1.85;;;;;;;;;;2106625;28;20036;-88
2022/08/09 04:25:50;;;;;;;3.72;2.35;;;;;;;;;;2097830;28;20097;-88
2022/08/09 04:26:51;;;;;;;4.90;3.00;;;;;;;;;;2088606;28;20119;-88
2022/08/09 04:27:51;;;;;;;2.85;2.55;;;;;;;;;;2087686;28;20024;-89
2022/08/09 04:28:52;;;;;;;2.10;1.83;;;;;;;;;;2097514;28;20106;-89
2022/08/09 04:29:52;;;;;;;4.40;2.70;;;;;;;;;;2106445;28;20035;-88
2022/08/09 04:30:53;;;;;;;5.15;2.35;;;;;;;;;;2103984;28;20121;-88
2022/08/09 04:31:53;;;;;;;6.28;2.88;;;;;;;;;;2099772;28;20085;-89
2022/08/09 04:32:54;;;;;;;3.53;2.67;;;;;;;;;;2097562;28;20063;-89
2022/08/09 04:33:54;;;;;;;4.53;2.60;;;;;;;;;;2089447;28;20191;-88
2022/08/09 04:35:06;;;;;;;4.22;2.50;;;;;;;;;;2058686;28;10002139;-87
2022/08/09 04:36:07;;;;;;;3.78;2.78;;;;;;;;;;2098942;28;20303;-87
2022/08/09 04:37:07;;;;;;;3.28;2.50;;;;;;;;;;2104142;28;20523;-88
2022/08/09 04:38:08;;;;;;;4.05;2.70;;;;;;;;;;2089251;28;20056;-87
2022/08/09 04:39:08;;;;;;;4.68;2.90;;;;;;;;;;2089426;28;20479;-88
2022/08/09 04:40:10;;;;;;;3.45;2.65;;;;;;;;;;2089370;28;20610;-89
2022/08/09 04:41:10;;;;;;;7.90;3.05;;;;;;;;;;2081019;28;20494;-88
2022/08/09 04:42:11;;;;;;;5.47;2.75;;;;;;;;;;1733282;28;10211844;-89
2022/08/09 04:43:13;;;;;;;3.67;2.72;;;;;;;;;;2098244;28;20664;-89
2022/08/09 04:44:13;;;;;;;4.10;2.35;;;;;;;;;;2098311;28;20058;-89
2022/08/09 04:45:15;;;;;;;4.00;2.60;;;;;;;;;;2100452;28;20411;-89
2022/08/09 04:46:15;;;;;;;5.32;3.20;;;;;;;;;;2106554;28;20055;-89
2022/08/09 04:47:16;;;;;;;3.85;2.65;;;;;;;;;;2097117;28;20115;-90
2022/08/09 04:48:32;;;;;;;3.47;2.60;;;;;;;;;;1854835;28;10001582;-90
2022/08/09 04:49:54;;;;;;;4.97;2.78;;;;;;;;;;1397779;28;10001161;-91
2022/08/09 04:50:54;;;;;;;3.80;2.60;;;;;;;;;;2100118;28;20040;-89
2022/08/09 04:51:55;;;;;;;3.40;2.50;;;;;;;;;;2106489;28;20024;-88
2022/08/09 04:52:55;;;;;;;3.60;2.42;;;;;;;;;;2106932;28;20020;-88
2022/08/09 04:53:55;;;;;;;3.97;2.70;;;;;;;;;;2097550;28;20024;-89
2022/08/09 04:54:58;;;;;;;4.03;2.90;;;;;;;;;;2097605;28;20024;-89
2022/08/09 04:55:58;;;;;;;4.75;2.70;;;;;;;;;;2106245;28;20464;-89
2022/08/09 04:56:59;;;;;;;4.03;2.80;;;;;;;;;;2097510;28;20111;-90
2022/08/09 04:57:59;;;;;;;5.78;2.72;;;;;;;;;;1733263;28;10231910;-89
2022/08/09 04:59:00;;;;;;;5.82;3.10;;;;;;;;;;2089054;28;20534;-89
2022/08/09 05:00:00;;;;;;;5.50;2.95;;;;;;;;;;2089224;28;20086;-89
2022/08/09 05:01:01;;;;;;;6.70;2.78;;;;;;;;;;2106024;28;20024;-89
2022/08/09 05:02:02;;;;;;;3.58;2.88;;;;;;;;;;2097318;28;20020;-89
2022/08/09 05:03:04;;;;;;;2.80;2.50;;;;;;;;;;1743623;28;10109593;-89
2022/08/09 05:04:04;;;;;;;6.03;2.80;;;;;;;;;;2106539;28;20554;-89
2022/08/09 05:05:05;;;;;;;4.10;2.88;;;;;;;;;;2093105;28;20025;-89
2022/08/09 05:06:06;;;;;;;3.97;3.00;;;;;;;;;;2091272;28;20020;-87
2022/08/09 05:07:06;;;;;;;3.00;2.53;;;;;;;;;;2106311;28;20278;-87
2022/08/09 05:08:06;;;;;;;4.70;2.90;;;;;;;;;;2106509;28;20111;-89
2022/08/09 05:09:07;;;;;;;4.30;2.97;;;;;;;;;;2097275;28;20024;-89
2022/08/09 05:10:08;;;;;;;4.32;2.85;;;;;;;;;;2089275;28;20164;-88
2022/08/09 05:11:08;;;;;;;3.60;3.17;;;;;;;;;;2089132;28;20131;-88
2022/08/09 05:12:09;;;;;;;5.05;3.35;;;;;;;;;;2097761;28;20055;-90
2022/08/09 05:13:10;;;;;;;6.60;3.00;;;;;;;;;;2098528;28;20020;-88
2022/08/09 05:14:11;;;;;;;5.97;3.15;;;;;;;;;;2100122;28;20021;-89
2022/08/09 05:15:11;;;;;;;5.15;3.13;;;;;;;;;;2098381;28;20591;-89
2022/08/09 05:16:12;;;;;;;7.95;2.95;;;;;;;;;;1735108;28;10153509;-89
2022/08/09 05:17:12;;;;;;;2.67;2.45;;;;;;;;;;1737483;28;10073286;-89
2022/08/09 05:18:12;;;;;;;3.17;2.88;;;;;;;;;;2097260;28;20024;-89
2022/08/09 05:19:13;;;;;;;4.18;2.88;;;;;;;;;;2106523;28;20079;-89
2022/08/09 05:20:14;;;;;;;3.55;2.75;;;;;;;;;;2106374;28;20113;-88
2022/08/09 05:21:15;;;;;;;3.05;2.33;;;;;;;;;;2106096;28;20020;-88
2022/08/09 05:22:16;;;;;;;4.60;3.03;;;;;;;;;;2106360;28;20051;-89
2022/08/09 05:23:17;;;;;;;4.45;2.78;;;;;;;;;;2106467;28;20059;-87
2022/08/09 05:24:17;;;;;;;3.20;2.67;;;;;;;;;;2097303;28;20024;-88
2022/08/09 05:25:18;;;;;;;3.28;2.80;;;;;;;;;;2097634;28;20028;-89
2022/08/09 05:26:19;;;;;;;3.92;2.80;;;;;;;;;;2094968;28;20074;-88
2022/08/09 05:27:20;;;;;;;3.58;2.60;;;;;;;;;;2089296;28;20025;-88
2022/08/09 05:28:20;;;;;;;5.05;2.70;;;;;;;;;;2099919;28;20484;-88
2022/08/09 05:29:21;;;;;;;7.25;3.13;;;;;;;;;;2091857;28;20140;-88
2022/08/09 05:30:21;;;;;;;3.50;2.38;;;;;;;;;;2083818;28;20034;-88
2022/08/09 05:31:22;;;;;;;4.43;2.70;;;;;;;;;;2100178;28;20029;-87
2022/08/09 05:32:22;;;;;;;5.88;3.13;;;;;;;;;;2106533;28;20016;-88
2022/08/09 05:33:23;;;;;;;4.75;3.03;;;;;;;;;;2106230;28;20024;-87
2022/08/09 05:34:24;;;;;;;3.92;2.75;;;;;;;;;;2096877;28;20119;-89
2022/08/09 05:35:25;;;;;;;4.72;3.38;;;;;;;;;;2086184;28;20095;-88
2022/08/09 05:36:25;;;;;;;3.88;2.78;;;;;;;;;;2097092;28;20095;-88
2022/08/09 05:37:26;;;;;;;3.35;2.72;;;;;;;;;;1746120;28;10255411;-89
2022/08/09 05:38:26;;;;;;;5.25;3.08;;;;;;;;;;2096474;28;20565;-88
2022/08/09 05:39:27;;;;;;;4.85;3.60;;;;;;;;;;2088821;28;20700;-88
2022/08/09 05:40:27;;;;;;;5.90;3.00;;;;;;;;;;2089337;28;20021;-88
2022/08/09 05:41:28;;;;;;;4.40;3.00;;;;;;;;;;2092844;28;20028;-92
2022/08/09 05:42:28;;;;;;;3.92;3.00;;;;;;;;;;2092100;28;20032;-91
2022/08/09 05:43:29;;;;;;;4.85;3.00;;;;;;;;;;2101067;28;20027;-92
2022/08/09 05:44:29;;;;;;;5.18;2.58;;;;;;;;;;2090034;28;20052;-92
2022/08/09 05:45:39;;;;;;;4.15;3.50;;;;;;;;;;1714263;28;10002600;-92
2022/08/09 05:46:40;;;;;;;3.83;2.95;;;;;;;;;;2084492;28;20687;-92
2022/08/09 05:47:44;;;;;;;4.93;3.00;;;;;;;;;;2082227;28;20049;-91
2022/08/09 05:48:44;;;;;;;3.95;3.13;;;;;;;;;;2089438;28;20024;-92
2022/08/09 05:49:44;;;;;;;3.25;2.85;;;;;;;;;;2088889;28;20143;-92
2022/08/09 05:50:47;;;;;;;5.75;3.30;;;;;;;;;;2089165;28;20035;-92
2022/08/09 05:51:47;;;;;;;5.93;3.50;;;;;;;;;;2097636;28;20017;-92
2022/08/09 05:52:51;;;;;;;5.30;3.63;;;;;;;;;;2105915;28;20386;-93
2022/08/09 05:53:52;;;;;;;3.88;3.33;;;;;;;;;;2097494;28;20024;-92
2022/08/09 05:54:52;;;;;;;4.97;4.13;;;;;;;;;;2089184;28;20525;-93
2022/08/09 05:55:53;;;;;;;4.47;3.78;;;;;;;;;;1737045;28;10091229;-91
2022/08/09 05:56:53;;;;;;;6.97;3.53;;;;;;;;;;2089186;28;20035;-92
2022/08/09 05:57:53;;;;;;;4.22;3.70;;;;;;;;;;2097552;28;20123;-92
2022/08/09 05:58:58;;;;;;;4.90;3.40;;;;;;;;;;2088811;28;20017;-90
2022/08/09 05:59:58;;;;;;;4.60;3.53;;;;;;;;;;2081265;28;20334;-92
2022/08/09 06:00:59;;;;;;;4.88;3.70;;;;;;;;;;2086701;28;20116;-92
2022/08/09 06:01:59;;;;;;;5.97;3.70;;;;;;;;;;2095857;28;20032;-92
2022/08/09 06:03:02;;;;;;;5.53;3.20;;;;;;;;;;2096647;28;20032;-95
2022/08/09 06:04:02;;;;;;;6.97;3.45;;;;;;;;;;2087977;28;20572;-89
2022/08/09 06:05:03;;;;;;;4.10;3.70;;;;;;;;;;2089071;28;20040;-92
2022/08/09 06:06:04;;;;;;;4.68;3.10;;;;;;;;;;2088753;28;20052;-91
2022/08/09 06:07:04;;;;;;;4.80;3.45;;;;;;;;;;1733305;28;10346862;-90
2022/08/09 06:08:05;;;;;;;4.13;3.53;;;;;;;;;;2096738;28;20485;-91
2022/08/09 06:09:07;;;;;;;3.70;3.28;;;;;;;;;;2086324;28;20021;-90
2022/08/09 06:10:09;;;;;;;5.88;3.95;;;;;;;;;;2091230;28;20025;-91
2022/08/09 06:11:10;;;;;;;4.50;3.28;;;;;;;;;;2094818;28;20043;-90
2022/08/09 06:12:13;;;;;;;4.22;3.47;;;;;;;;;;2104086;28;20072;-95
2022/08/09 06:13:14;;;;;;;5.88;3.13;;;;;;;;;;2105776;28;20024;-93